createdAt,value
2022-07-29T00:01:43.955Z,99473.78
2022-07-29T00:04:45.463Z,99469.22
2022-07-29T00:07:46.952Z,99469.59
2022-07-29T00:10:48.432Z,99460.75
2022-07-29T00:13:51.141Z,99469.44
2022-07-29T00:16:52.888Z,99475.81
2022-07-29T00:19:54.350Z,99458.75
2022-07-29T00:22:55.968Z,99469.91
2022-07-29T00:25:57.357Z,99470.28
2022-07-29T00:29:33.153Z,99464.63
2022-07-29T00:32:26.187Z,99460.09
2022-07-29T00:35:45.565Z,99455.03
2022-07-29T00:38:50.573Z,99451.81
2022-07-29T00:41:52.080Z,99449.06
2022-07-29T00:44:54.571Z,99452.28
2022-07-29T00:47:56.028Z,99443.72
2022-07-29T00:51:00.646Z,99447.69
2022-07-29T00:54:03.117Z,99450.19
2022-07-29T00:57:06.634Z,99442.44
2022-07-29T01:00:12.081Z,99448.16
2022-07-29T01:03:13.769Z,99443.56
2022-07-29T01:06:16.325Z,99448.97
2022-07-29T01:09:19.778Z,99443.63
2022-07-29T01:12:37.537Z,99445.50
2022-07-29T01:15:49.461Z,99447.00
2022-07-29T01:18:55.414Z,99444.59
2022-07-29T01:22:00.667Z,99439.44
2022-07-29T01:25:21.000Z,99447.88
2022-07-29T01:28:57.990Z,99444.19
2022-07-29T01:32:04.791Z,99439.75
2022-07-29T01:35:17.135Z,99450.38
2022-07-29T01:38:23.149Z,99443.06
2022-07-29T01:41:27.582Z,99450.75
2022-07-29T01:44:36.620Z,99454.91
2022-07-29T01:48:01.834Z,99445.50
2022-07-29T01:51:09.365Z,99446.94
2022-07-29T01:54:20.842Z,99452.50
2022-07-29T01:57:27.109Z,99444.22
2022-07-29T02:00:32.459Z,99465.50
2022-07-29T02:03:36.662Z,99453.25
2022-07-29T02:06:41.610Z,99455.47
2022-07-29T02:09:44.867Z,99459.59
2022-07-29T02:12:50.732Z,99452.75
2022-07-29T02:15:54.755Z,99460.88
2022-07-29T02:18:58.935Z,99459.16
2022-07-29T02:22:01.603Z,99459.00
2022-07-29T02:25:03.824Z,99462.84
2022-07-29T02:28:07.575Z,99455.94
2022-07-29T02:31:10.385Z,99454.53
2022-07-29T02:34:13.626Z,99452.34
2022-07-29T02:37:18.180Z,99458.41
2022-07-29T02:40:19.816Z,99459.63
2022-07-29T02:43:23.503Z,99460.53
2022-07-29T02:46:35.120Z,99466.41
2022-07-29T02:49:44.008Z,99471.06
2022-07-29T02:52:53.493Z,99472.38
2022-07-29T02:56:01.473Z,99474.00
2022-07-29T02:59:06.896Z,99474.38
2022-07-29T03:02:10.634Z,99473.81
2022-07-29T03:05:19.977Z,99473.59
2022-07-29T03:08:22.789Z,99480.19
2022-07-29T03:11:42.321Z,99477.63
2022-07-29T03:14:47.375Z,99483.19
2022-07-29T03:17:50.205Z,99485.50
2022-07-29T03:20:51.731Z,99481.41
2022-07-29T03:23:53.221Z,99482.66
2022-07-29T03:26:56.235Z,99488.63
2022-07-29T03:29:57.714Z,99496.00
2022-07-29T03:32:59.751Z,99490.41
2022-07-29T03:36:03.268Z,99491.91
2022-07-29T03:39:05.718Z,99492.97
2022-07-29T03:42:09.262Z,99492.41
2022-07-29T03:45:16.338Z,99494.78
2022-07-29T03:48:21.455Z,99500.44
2022-07-29T03:51:33.066Z,99505.63
2022-07-29T03:54:35.796Z,99510.09
2022-07-29T03:57:38.814Z,99499.19
2022-07-29T04:00:41.464Z,99510.66
2022-07-29T04:03:43.024Z,99505.31
2022-07-29T04:06:48.369Z,99508.34
2022-07-29T04:09:50.181Z,99503.56
2022-07-29T04:12:51.635Z,99508.81
2022-07-29T04:15:53.112Z,99513.31
2022-07-29T04:18:54.606Z,99516.94
2022-07-29T04:21:56.101Z,99515.19
2022-07-29T04:25:03.258Z,99515.19
2022-07-29T04:28:05.696Z,99515.19
2022-07-29T04:31:07.843Z,99512.75
2022-07-29T04:34:09.960Z,99517.03
2022-07-29T04:37:11.652Z,99523.06
2022-07-29T04:40:13.335Z,99524.09
2022-07-29T04:43:16.145Z,99524.56
2022-07-29T04:46:17.634Z,99524.97
2022-07-29T04:49:19.243Z,99527.06
2022-07-29T04:52:20.748Z,99539.47
2022-07-29T04:55:22.214Z,99540.31
2022-07-29T04:58:24.538Z,99542.34
2022-07-29T05:01:26.081Z,99548.56
2022-07-29T05:04:27.616Z,99547.28
2022-07-29T05:07:29.178Z,99536.81
2022-07-29T05:10:30.968Z,99531.41
2022-07-29T05:13:45.932Z,99536.94
2022-07-29T05:16:49.580Z,99544.69
2022-07-29T05:19:52.239Z,99548.66
2022-07-29T05:22:53.815Z,99548.09
2022-07-29T05:25:55.295Z,99552.03
2022-07-29T05:28:57.943Z,99557.75
2022-07-29T05:31:59.579Z,99559.13
2022-07-29T05:35:01.805Z,99557.88
2022-07-29T05:38:03.441Z,99561.19
2022-07-29T05:41:06.253Z,99562.25
2022-07-29T05:44:07.761Z,99571.44
2022-07-29T05:47:09.673Z,99567.13
2022-07-29T05:50:11.500Z,99573.28
2022-07-29T05:53:20.072Z,99576.28
2022-07-29T05:56:21.934Z,99575.59
2022-07-29T05:59:27.051Z,99575.44
2022-07-29T06:02:31.539Z,99571.97
2022-07-29T06:05:33.288Z,99577.63
2022-07-29T06:08:34.860Z,99591.53
2022-07-29T06:11:36.407Z,99594.22
2022-07-29T06:14:39.245Z,99583.56
2022-07-29T06:17:59.941Z,99589.47
2022-07-29T06:21:02.332Z,99586.56
2022-07-29T06:24:04.045Z,99585.91
2022-07-29T06:27:05.495Z,99592.47
2022-07-29T06:30:09.882Z,99594.00
2022-07-29T06:33:17.514Z,99584.66
2022-07-29T06:36:19.063Z,99592.19
2022-07-29T06:39:20.842Z,99591.44
2022-07-29T06:42:22.347Z,99589.72
2022-07-29T06:45:25.185Z,99581.16
2022-07-29T06:48:30.379Z,99582.38
2022-07-29T06:51:31.977Z,99585.31
2022-07-29T06:54:33.752Z,99591.97
2022-07-29T06:57:35.290Z,99597.22
2022-07-29T07:00:36.778Z,99596.31
2022-07-29T07:03:38.253Z,99593.75
2022-07-29T07:06:40.191Z,99594.63
2022-07-29T07:09:41.707Z,99602.56
2022-07-29T07:12:43.180Z,99605.81
2022-07-29T07:15:46.436Z,99612.06
2022-07-29T07:18:48.051Z,99605.84
2022-07-29T07:21:49.557Z,99611.75
2022-07-29T07:24:51.290Z,99606.16
2022-07-29T07:27:52.672Z,99611.97
2022-07-29T07:30:54.125Z,99624.22
2022-07-29T07:33:55.571Z,99627.94
2022-07-29T07:36:57.232Z,99625.38
2022-07-29T07:39:59.012Z,99633.09
2022-07-29T07:43:00.363Z,99635.25
2022-07-29T07:46:01.945Z,99639.53
2022-07-29T07:49:03.383Z,99637.41
2022-07-29T07:52:05.310Z,99648.31
2022-07-29T07:55:08.659Z,99641.22
2022-07-29T07:58:10.721Z,99649.88
2022-07-29T08:01:12.217Z,99650.81
2022-07-29T08:04:14.738Z,99640.38
2022-07-29T08:07:16.520Z,99636.53
2022-07-29T08:10:38.733Z,99637.19
2022-07-29T08:13:40.238Z,99637.22
2022-07-29T08:16:43.189Z,99633.31
2022-07-29T08:19:44.725Z,99641.28
2022-07-29T08:22:47.084Z,99640.72
2022-07-29T08:25:50.261Z,99643.41
2022-07-29T08:28:52.145Z,99645.66
2022-07-29T08:31:54.066Z,99643.81
2022-07-29T08:34:55.782Z,99645.47
2022-07-29T08:37:57.814Z,99645.91
2022-07-29T08:41:01.221Z,99644.47
2022-07-29T08:44:02.904Z,99652.78
2022-07-29T08:47:04.552Z,99659.03
2022-07-29T08:50:07.611Z,99663.66
2022-07-29T08:53:13.019Z,99654.41
2022-07-29T08:56:18.275Z,99663.06
2022-07-29T08:59:25.566Z,99656.13
2022-07-29T09:02:29.763Z,99663.94
2022-07-29T09:05:36.892Z,99663.44
2022-07-29T09:08:42.254Z,99655.25
2022-07-29T09:11:45.277Z,99658.50
2022-07-29T09:14:46.661Z,99661.91
2022-07-29T09:17:50.609Z,99661.50
2022-07-29T09:21:12.115Z,99659.44
2022-07-29T09:24:14.705Z,99656.22
2022-07-29T09:27:29.931Z,99657.91
2022-07-29T09:30:31.848Z,99652.81
2022-07-29T09:33:41.282Z,99659.50
2022-07-29T09:36:45.869Z,99650.50
2022-07-29T09:39:47.453Z,99639.97
2022-07-29T09:42:49.590Z,99640.75
2022-07-29T09:45:51.202Z,99633.00
2022-07-29T09:49:09.810Z,99634.03
2022-07-29T09:52:12.144Z,99630.19
2022-07-29T09:55:18.154Z,99630.78
2022-07-29T09:58:22.220Z,99616.78
2022-07-29T10:01:30.179Z,99621.59
2022-07-29T10:04:42.845Z,99614.66
2022-07-29T10:07:50.569Z,99620.06
2022-07-29T10:11:10.378Z,99623.25
2022-07-29T10:14:12.167Z,99628.13
2022-07-29T10:17:13.725Z,99629.19
2022-07-29T10:20:16.563Z,99620.56
2022-07-29T10:23:18.206Z,99620.56
2022-07-29T10:26:20.153Z,99619.41
2022-07-29T10:29:21.651Z,99609.50
2022-07-29T10:32:30.908Z,99612.47
2022-07-29T10:35:51.071Z,99604.97
2022-07-29T10:39:03.141Z,99610.97
2022-07-29T10:42:20.322Z,99609.56
2022-07-29T10:45:31.576Z,99613.84
2022-07-29T10:48:33.307Z,99606.97
2022-07-29T10:51:59.947Z,99608.63
2022-07-29T10:55:03.977Z,99612.31
2022-07-29T10:58:19.283Z,99597.28
2022-07-29T11:01:37.044Z,99604.38
2022-07-29T11:04:45.603Z,99604.22
2022-07-29T11:08:20.288Z,99610.13
2022-07-29T11:11:29.528Z,99614.91
2022-07-29T11:14:53.363Z,99617.34
2022-07-29T11:17:54.854Z,99614.63
2022-07-29T11:20:56.326Z,99605.19
2022-07-29T11:24:18.709Z,99611.91
2022-07-29T11:27:40.440Z,99611.34
2022-07-29T11:30:50.599Z,99619.50
2022-07-29T11:33:56.543Z,99614.66
2022-07-29T11:37:08.126Z,99620.28
2022-07-29T11:40:12.560Z,99610.34
2022-07-29T11:43:53.474Z,99621.34
2022-07-29T11:46:55.374Z,99632.94
2022-07-29T11:49:59.950Z,99631.88
2022-07-29T11:53:08.832Z,99631.31
2022-07-29T11:56:16.427Z,99634.03
2022-07-29T11:59:20.353Z,99631.59
2022-07-29T12:02:38.264Z,99634.84
2022-07-29T12:09:11.234Z,99631.38
2022-07-29T12:12:17.892Z,99629.19
2022-07-29T12:15:22.202Z,99629.44
2022-07-29T12:18:24.599Z,99627.50
2022-07-29T12:21:26.692Z,99625.94
2022-07-29T12:24:44.996Z,99634.56
2022-07-29T12:27:46.897Z,99638.34
2022-07-29T12:30:51.748Z,99632.69
2022-07-29T12:33:54.733Z,99631.88
2022-07-29T12:36:57.173Z,99631.34
2022-07-29T12:39:59.019Z,99623.56
2022-07-29T12:43:08.481Z,99626.50
2022-07-29T12:46:15.932Z,99630.28
2022-07-29T12:49:24.084Z,99624.38
2022-07-29T12:52:26.332Z,99628.66
2022-07-29T12:55:50.007Z,99630.78
2022-07-29T12:58:51.633Z,99638.06
2022-07-29T13:01:53.311Z,99634.25
2022-07-29T13:04:59.778Z,99621.00
2022-07-29T13:08:30.835Z,99627.53
2022-07-29T13:11:34.341Z,99626.44
2022-07-29T13:14:39.448Z,99621.91
2022-07-29T13:17:44.548Z,99629.44
2022-07-29T13:20:49.517Z,99625.97
2022-07-29T13:23:51.086Z,99628.38
2022-07-29T13:26:53.394Z,99631.09
2022-07-29T13:29:58.544Z,99625.69
2022-07-29T13:33:00.040Z,99631.63
2022-07-29T13:36:01.541Z,99628.66
2022-07-29T13:39:03.707Z,99622.47
2022-07-29T13:42:10.771Z,99635.09
2022-07-29T13:45:12.774Z,99627.00
2022-07-29T13:48:14.596Z,99630.81
2022-07-29T13:51:16.295Z,99623.25
2022-07-29T13:54:18.077Z,99624.34
2022-07-29T13:57:20.092Z,99623.78
2022-07-29T14:00:21.646Z,99611.69
2022-07-29T14:03:23.305Z,99612.50
2022-07-29T14:06:25.129Z,99610.34
2022-07-29T14:09:27.080Z,99611.44
2022-07-29T14:12:28.684Z,99616.28
2022-07-29T14:15:30.149Z,99609.78
2022-07-29T14:18:31.544Z,99614.31
2022-07-29T14:21:33.649Z,99604.66
2022-07-29T14:24:38.551Z,99601.19
2022-07-29T14:27:40.412Z,99604.34
2022-07-29T14:30:44.187Z,99608.09
2022-07-29T14:33:46.272Z,99602.16
2022-07-29T14:36:50.986Z,99606.44
2022-07-29T14:39:52.425Z,99601.09
2022-07-29T14:42:54.167Z,99605.59
2022-07-29T14:46:01.228Z,99612.44
2022-07-29T14:49:04.506Z,99613.81
2022-07-29T14:52:08.554Z,99614.59
2022-07-29T14:55:16.589Z,99614.25
2022-07-29T14:58:23.199Z,99619.13
2022-07-29T15:01:25.616Z,99610.19
2022-07-29T15:04:27.268Z,99609.09
2022-07-29T15:07:28.943Z,99614.00
2022-07-29T15:10:30.573Z,99614.03
2022-07-29T15:13:32.012Z,99612.41
2022-07-29T15:16:33.735Z,99612.44
2022-07-29T15:19:35.443Z,99603.59
2022-07-29T15:22:38.044Z,99605.75
2022-07-29T15:25:40.539Z,99610.28
2022-07-29T15:28:42.248Z,99615.28
2022-07-29T15:31:44.731Z,99610.06
2022-07-29T15:34:46.397Z,99615.97
2022-07-29T15:37:48.985Z,99609.28
2022-07-29T15:40:50.922Z,99610.63
2022-07-29T15:43:52.327Z,99610.88
2022-07-29T15:47:07.309Z,99614.38
2022-07-29T15:50:14.315Z,99604.19
2022-07-29T15:53:15.780Z,99609.53
2022-07-29T15:56:17.850Z,99599.56
2022-07-29T15:59:22.409Z,99605.47
2022-07-29T16:02:24.290Z,99602.50
2022-07-29T16:05:26.180Z,99590.38
2022-07-29T16:08:27.745Z,99588.28
2022-07-29T16:11:29.184Z,99593.13
2022-07-29T16:14:30.597Z,99592.28
2022-07-29T16:17:32.045Z,99583.03
2022-07-29T16:20:33.421Z,99590.91
2022-07-29T16:23:34.863Z,99584.59
2022-07-29T16:26:36.252Z,99587.69
2022-07-29T16:29:37.767Z,99580.09
2022-07-29T16:32:39.791Z,99584.31
2022-07-29T16:35:41.252Z,99582.13
2022-07-29T16:38:46.982Z,99584.19
2022-07-29T16:41:49.261Z,99582.75
2022-07-29T16:44:50.893Z,99573.47
2022-07-29T16:48:00.188Z,99579.03
2022-07-29T16:51:02.588Z,99571.28
2022-07-29T16:54:04.229Z,99587.13
2022-07-29T16:57:05.720Z,99583.06
2022-07-29T17:00:08.073Z,99586.63
2022-07-29T17:03:09.708Z,99585.06
2022-07-29T17:06:11.749Z,99586.38
2022-07-29T17:09:15.144Z,99597.97
2022-07-29T17:12:16.781Z,99600.41
2022-07-29T17:15:18.587Z,99606.59
2022-07-29T17:18:20.058Z,99607.13
2022-07-29T17:21:22.056Z,99608.75
2022-07-29T17:24:23.551Z,99615.19
2022-07-29T17:27:25.804Z,99617.91
2022-07-29T17:30:27.386Z,99618.94
2022-07-29T17:33:28.912Z,99615.13
2022-07-29T17:36:30.669Z,99623.22
2022-07-29T17:39:32.759Z,99620.53
2022-07-29T17:42:34.273Z,99619.16
2022-07-29T17:45:49.817Z,99629.00
2022-07-29T17:48:52.426Z,99627.13
2022-07-29T17:51:57.617Z,99629.13
2022-07-29T17:55:02.567Z,99623.56
2022-07-29T17:58:04.072Z,99627.88
2022-07-29T18:01:05.716Z,99623.66
2022-07-29T18:04:08.663Z,99633.28
2022-07-29T18:07:10.568Z,99634.03
2022-07-29T18:10:12.087Z,99636.72
2022-07-29T18:13:13.803Z,99631.09
2022-07-29T18:16:15.311Z,99641.31
2022-07-29T18:19:16.807Z,99640.22
2022-07-29T18:22:19.187Z,99646.97
2022-07-29T18:25:20.810Z,99644.44
2022-07-29T18:28:22.355Z,99644.69
2022-07-29T18:31:23.836Z,99649.31
2022-07-29T18:34:25.448Z,99647.66
2022-07-29T18:38:02.142Z,99650.31
2022-07-29T18:40:48.709Z,99650.44
2022-07-29T18:43:50.220Z,99649.16
2022-07-29T18:46:52.101Z,99651.84
2022-07-29T18:49:53.705Z,99656.53
2022-07-29T18:52:56.468Z,99657.31
2022-07-29T18:56:00.245Z,99656.91
2022-07-29T18:59:03.056Z,99661.66
2022-07-29T19:02:04.720Z,99662.97
2022-07-29T19:05:08.246Z,99665.09
2022-07-29T19:08:09.759Z,99661.75
2022-07-29T19:11:12.928Z,99664.44
2022-07-29T19:14:14.381Z,99667.22
2022-07-29T19:17:15.846Z,99665.97
2022-07-29T19:20:17.513Z,99671.38
2022-07-29T19:23:19.536Z,99679.22
2022-07-29T19:26:21.033Z,99681.91
2022-07-29T19:29:23.640Z,99692.66
2022-07-29T19:32:25.604Z,99693.19
2022-07-29T19:35:33.432Z,99693.59
2022-07-29T19:38:35.004Z,99695.63
2022-07-29T19:41:36.618Z,99700.84
2022-07-29T19:44:37.994Z,99711.53
2022-07-29T19:47:39.688Z,99707.31
2022-07-29T19:50:41.696Z,99709.94
2022-07-29T19:53:45.202Z,99719.00
2022-07-29T19:56:46.632Z,99722.81
2022-07-29T19:59:48.336Z,99719.34
2022-07-29T20:02:51.731Z,99727.38
2022-07-29T20:05:53.437Z,99716.91
2022-07-29T20:08:58.779Z,99714.13
2022-07-29T20:12:00.777Z,99720.44
2022-07-29T20:15:02.274Z,99717.75
2022-07-29T20:18:04.000Z,99718.31
2022-07-29T20:21:05.433Z,99728.88
2022-07-29T20:24:07.355Z,99721.69
2022-07-29T20:27:13.564Z,99722.41
2022-07-29T20:30:15.356Z,99728.25
2022-07-29T20:33:19.236Z,99725.94
2022-07-29T20:36:20.759Z,99716.75
2022-07-29T20:39:22.252Z,99718.47
2022-07-29T20:42:23.773Z,99723.41
2022-07-29T20:45:25.511Z,99723.53
2022-07-29T20:48:26.914Z,99721.94
2022-07-29T20:51:28.568Z,99721.50
2022-07-29T20:54:29.947Z,99733.13
2022-07-29T20:57:39.390Z,99733.34
2022-07-29T21:00:41.302Z,99727.75
2022-07-29T21:03:42.796Z,99721.59
2022-07-29T21:06:44.253Z,99722.72
2022-07-29T21:09:45.943Z,99726.31
2022-07-29T21:12:47.463Z,99730.03
2022-07-29T21:15:50.692Z,99734.25
2022-07-29T21:18:53.088Z,99742.69
2022-07-29T21:21:54.667Z,99741.56
2022-07-29T21:24:56.201Z,99743.16
2022-07-29T21:28:16.340Z,99744.31
2022-07-29T21:31:18.083Z,99746.19
2022-07-29T21:34:19.538Z,99749.50
2022-07-29T21:37:21.562Z,99747.97
2022-07-29T21:40:23.083Z,99751.69
2022-07-29T21:43:26.591Z,99753.16
2022-07-29T21:46:28.133Z,99774.31
2022-07-29T21:49:29.635Z,99782.41
2022-07-29T21:52:31.202Z,99761.75
2022-07-29T21:55:33.150Z,99771.44
2022-07-29T21:58:34.537Z,99767.69
2022-07-29T22:01:39.396Z,99769.44
2022-07-29T22:04:41.213Z,99772.63
2022-07-29T22:07:54.244Z,99775.66
2022-07-29T22:10:57.178Z,99781.47
2022-07-29T22:13:59.115Z,99777.59
2022-07-29T22:17:00.839Z,99782.03
2022-07-29T22:20:02.983Z,99780.66
2022-07-29T22:23:04.450Z,99780.50
2022-07-29T22:26:05.953Z,99790.41
2022-07-29T22:29:07.507Z,99788.50
2022-07-29T22:32:09.276Z,99800.03
2022-07-29T22:35:11.261Z,99805.00
2022-07-29T22:38:12.717Z,99801.56
2022-07-29T22:41:15.638Z,99796.47
2022-07-29T22:44:17.297Z,99796.56
2022-07-29T22:47:18.793Z,99805.97
2022-07-29T22:50:40.290Z,99803.19
2022-07-29T22:53:41.820Z,99813.00
2022-07-29T22:56:43.257Z,99816.75
2022-07-29T22:59:44.757Z,99827.53
2022-07-29T23:02:47.580Z,99824.91
2022-07-29T23:05:51.464Z,99831.75
2022-07-29T23:08:52.933Z,99830.00
2022-07-29T23:11:54.393Z,99830.00
2022-07-29T23:14:55.894Z,99837.91
2022-07-29T23:17:57.350Z,99839.06
2022-07-29T23:20:58.825Z,99842.06
2022-07-29T23:24:00.263Z,99849.00
2022-07-29T23:27:01.960Z,99856.28
2022-07-29T23:30:04.531Z,99860.47
2022-07-29T23:33:06.249Z,99857.28
2022-07-29T23:36:07.671Z,99861.13
2022-07-29T23:39:11.308Z,99850.44
2022-07-29T23:42:12.898Z,99856.13
2022-07-29T23:45:14.586Z,99865.78
2022-07-29T23:48:16.080Z,99868.53
2022-07-29T23:51:17.514Z,99864.69
2022-07-29T23:54:19.040Z,99863.00
2022-07-29T23:57:24.323Z,99868.44
